Time;durP1;ratioP1;P1;durP2;ratioP2;P2;SDS_P1;SDS_P2;PMS_P1;PMS_P2;Temp;Humidity;BMP_temperature;BMP_pressure;BME280_temperature;BME280_humidity;BME280_pressure;Samples;Min_cycle;Max_cycle;Signal;HPM_P1;HPM_P2
2023/07/17 00:00:11;;;;;;;12.13;11.63;;;22.30;99.90;;;;;;4920376;29;20474;-79
2023/07/17 00:02:41;;;;;;;12.23;11.73;;;22.30;99.90;;;;;;4918368;29;21064;-79
2023/07/17 00:05:10;;;;;;;12.03;11.50;;;22.30;99.90;;;;;;4919195;29;20487;-80
2023/07/17 00:07:39;;;;;;;11.90;11.50;;;22.30;99.90;;;;;;4916726;29;21027;-79
2023/07/17 00:10:09;;;;;;;11.63;11.23;;;22.40;99.90;;;;;;4918544;29;20459;-80
2023/07/17 00:12:38;;;;;;;11.20;10.87;;;22.20;99.90;;;;;;4920203;29;22316;-79
2023/07/17 00:15:07;;;;;;;12.10;11.70;;;22.20;99.90;;;;;;4921954;29;20472;-78
2023/07/17 00:17:36;;;;;;;12.00;11.60;;;22.10;99.90;;;;;;4920970;29;20483;-80
2023/07/17 00:20:10;;;;;;;12.23;11.63;;;22.20;99.90;;;;;;4922621;29;21088;-80
2023/07/17 00:22:38;;;;;;;12.10;11.70;;;22.20;99.90;;;;;;4921872;29;20462;-82
2023/07/17 00:25:08;;;;;;;11.90;11.50;;;22.20;99.90;;;;;;4925312;29;20467;-82
2023/07/17 00:27:37;;;;;;;11.83;11.33;;;22.20;99.90;;;;;;4926602;29;21267;-79
2023/07/17 00:30:06;;;;;;;12.50;12.10;;;22.10;99.90;;;;;;4924911;29;20456;-82
2023/07/17 00:32:34;;;;;;;11.60;11.10;;;22.20;99.90;;;;;;4923674;29;20476;-81
2023/07/17 00:35:02;;;;;;;11.47;10.97;;;22.20;99.90;;;;;;4923330;28;21001;-81
2023/07/17 00:37:32;;;;;;;11.83;11.20;;;22.20;99.90;;;;;;4923891;29;20467;-80
2023/07/17 00:40:00;;;;;;;11.67;11.07;;;22.20;99.90;;;;;;4924231;29;20491;-81
2023/07/17 00:42:28;;;;;;;12.07;11.37;;;22.20;99.90;;;;;;4919971;29;20464;-82
2023/07/17 00:44:56;;;;;;;11.33;10.93;;;22.10;99.90;;;;;;4923581;29;20456;-82
2023/07/17 00:47:25;;;;;;;11.93;11.50;;;22.20;99.90;;;;;;4922513;29;20487;-81
2023/07/17 00:49:53;;;;;;;11.47;10.97;;;22.20;99.90;;;;;;4922777;29;20488;-81
2023/07/17 00:52:22;;;;;;;11.43;11.07;;;22.10;99.90;;;;;;4923932;29;20452;-80
2023/07/17 00:54:52;;;;;;;11.00;10.70;;;22.20;99.90;;;;;;4922359;29;21106;-81
2023/07/17 00:57:23;;;;;;;11.70;11.10;;;22.20;99.90;;;;;;4923248;29;20507;-82
2023/07/17 00:59:52;;;;;;;11.70;11.30;;;22.20;99.90;;;;;;4920627;29;20484;-81
2023/07/17 01:02:21;;;;;;;12.00;11.43;;;22.20;99.90;;;;;;4922099;29;20465;-80
2023/07/17 01:04:49;;;;;;;11.93;11.37;;;22.20;99.90;;;;;;4919728;29;20465;-80
2023/07/17 01:07:17;;;;;;;11.60;11.20;;;22.10;99.90;;;;;;4917007;29;20485;-79
2023/07/17 01:09:45;;;;;;;11.43;11.13;;;22.20;99.90;;;;;;4917407;29;20445;-80
2023/07/17 01:12:15;;;;;;;11.90;11.50;;;22.10;99.90;;;;;;4918989;29;20445;-80
2023/07/17 01:14:43;;;;;;;12.53;11.83;;;22.10;99.90;;;;;;4916552;29;20576;-79
2023/07/17 01:17:11;;;;;;;12.17;11.67;;;22.10;99.90;;;;;;4918836;29;20570;-80
2023/07/17 01:19:39;;;;;;;12.60;11.83;;;22.10;99.90;;;;;;4921011;29;20565;-80
2023/07/17 01:22:14;;;;;;;11.97;11.47;;;22.10;99.90;;;;;;4917302;29;20489;-79
2023/07/17 01:24:43;;;;;;;12.17;11.60;;;22.00;99.90;;;;;;4920398;29;20818;-80
2023/07/17 01:27:11;;;;;;;12.37;11.53;;;22.00;99.90;;;;;;4916741;29;21006;-80
2023/07/17 01:29:39;;;;;;;12.27;11.80;;;22.00;99.90;;;;;;4918943;29;20453;-79
2023/07/17 01:32:08;;;;;;;11.73;11.30;;;22.00;99.90;;;;;;4920223;29;20553;-80
2023/07/17 01:34:37;;;;;;;12.80;12.00;;;21.90;99.90;;;;;;4920558;29;20461;-80
2023/07/17 01:37:05;;;;;;;12.63;12.03;;;21.90;99.90;;;;;;4916668;29;20477;-80
2023/07/17 01:39:33;;;;;;;12.90;12.20;;;21.90;99.90;;;;;;4921704;29;20555;-79
2023/07/17 01:42:03;;;;;;;12.77;12.00;;;21.80;99.90;;;;;;4920146;29;20468;-80
2023/07/17 01:44:31;;;;;;;12.67;12.07;;;21.70;99.90;;;;;;4922217;29;20561;-79
2023/07/17 01:47:00;;;;;;;13.17;12.47;;;21.70;99.90;;;;;;4917477;29;20897;-79
2023/07/17 01:49:28;;;;;;;12.83;12.23;;;21.70;99.90;;;;;;4917504;29;20472;-79
2023/07/17 01:51:56;;;;;;;13.00;12.40;;;21.80;99.90;;;;;;4917868;29;21142;-79
2023/07/17 01:54:24;;;;;;;12.80;12.10;;;21.70;99.90;;;;;;4919375;28;20815;-80
2023/07/17 01:56:52;;;;;;;12.20;11.80;;;21.70;99.90;;;;;;4914334;29;20800;-78
2023/07/17 01:59:22;;;;;;;12.73;12.33;;;21.60;99.90;;;;;;4919258;29;20468;-80
2023/07/17 02:01:50;;;;;;;12.93;12.40;;;21.60;99.90;;;;;;4917237;29;20480;-79
2023/07/17 02:04:18;;;;;;;12.97;12.47;;;21.60;99.90;;;;;;4921895;29;20456;-79
2023/07/17 02:06:46;;;;;;;13.10;12.40;;;21.60;99.90;;;;;;4917391;29;20485;-78
2023/07/17 02:09:14;;;;;;;12.70;12.00;;;21.60;99.90;;;;;;4917508;29;21003;-80
2023/07/17 02:11:42;;;;;;;12.43;12.03;;;21.60;99.90;;;;;;4918685;29;20456;-80
2023/07/17 02:14:10;;;;;;;13.20;12.50;;;21.60;99.90;;;;;;4919251;29;20485;-78
2023/07/17 02:16:40;;;;;;;12.97;12.37;;;21.60;99.90;;;;;;4918548;29;21014;-79
2023/07/17 02:19:08;;;;;;;12.50;11.93;;;21.60;99.90;;;;;;4920060;29;20461;-77
2023/07/17 02:21:36;;;;;;;12.63;12.20;;;21.60;99.90;;;;;;4920765;29;20489;-78
2023/07/17 02:24:05;;;;;;;12.50;11.90;;;21.70;99.90;;;;;;4920330;29;20469;-80
2023/07/17 02:26:33;;;;;;;12.00;11.70;;;21.60;99.90;;;;;;4922191;29;20504;-79
2023/07/17 02:29:02;;;;;;;12.40;11.90;;;21.60;99.90;;;;;;4916441;29;20476;-80
2023/07/17 02:31:30;;;;;;;12.77;12.07;;;21.60;99.90;;;;;;4918430;29;20465;-79
2023/07/17 02:34:00;;;;;;;12.30;11.80;;;21.60;99.90;;;;;;4918478;29;20474;-79
2023/07/17 02:36:29;;;;;;;12.40;12.00;;;21.50;99.90;;;;;;4917711;29;20488;-79
2023/07/17 02:38:57;;;;;;;12.80;12.20;;;21.60;99.90;;;;;;4924603;29;20561;-80
2023/07/17 02:41:25;;;;;;;12.57;12.00;;;21.50;99.90;;;;;;4925139;29;20812;-79
2023/07/17 02:43:53;;;;;;;12.40;11.90;;;21.50;99.90;;;;;;4922029;29;20451;-78
2023/07/17 02:46:21;;;;;;;12.43;12.03;;;21.50;99.90;;;;;;4919118;29;21328;-77
2023/07/17 02:48:49;;;;;;;12.27;11.90;;;21.50;99.90;;;;;;4921708;29;20467;-79
2023/07/17 02:51:19;;;;;;;14.17;13.30;;;21.50;99.90;;;;;;4918815;29;20461;-78
2023/07/17 02:53:48;;;;;;;12.67;11.97;;;21.50;99.90;;;;;;4917220;29;20468;-79
2023/07/17 02:56:16;;;;;;;12.63;11.97;;;21.50;99.90;;;;;;4924175;29;20489;-80
2023/07/17 02:58:48;;;;;;;12.20;11.77;;;21.40;99.90;;;;;;4924020;29;20462;-79
2023/07/17 03:01:17;;;;;;;12.53;12.03;;;21.40;99.90;;;;;;4923543;29;20723;-80
2023/07/17 03:03:46;;;;;;;12.70;12.10;;;21.40;99.90;;;;;;4923442;29;20462;-78
2023/07/17 03:06:14;;;;;;;13.37;12.77;;;21.40;99.90;;;;;;4919342;29;20921;-79
2023/07/17 03:08:43;;;;;;;13.50;12.70;;;21.40;99.90;;;;;;4921829;29;21065;-78
2023/07/17 03:11:11;;;;;;;13.30;12.60;;;21.30;99.90;;;;;;4921920;29;20825;-78
2023/07/17 03:13:39;;;;;;;12.93;12.53;;;21.30;99.90;;;;;;4923283;29;20453;-78
2023/07/17 03:16:07;;;;;;;13.43;12.83;;;21.30;99.90;;;;;;4921553;29;20543;-80
2023/07/17 03:18:36;;;;;;;12.90;12.40;;;21.30;99.90;;;;;;4923818;29;20491;-79
2023/07/17 03:21:04;;;;;;;14.23;13.30;;;21.30;99.90;;;;;;4923684;29;20495;-78
2023/07/17 03:23:33;;;;;;;13.77;13.17;;;21.30;99.90;;;;;;4923149;29;20807;-77
2023/07/17 03:26:03;;;;;;;13.47;12.97;;;21.30;99.90;;;;;;4920584;29;20544;-78
2023/07/17 03:28:31;;;;;;;13.73;13.03;;;21.30;99.90;;;;;;4923948;29;20464;-79
2023/07/17 03:30:59;;;;;;;14.20;13.50;;;21.30;99.90;;;;;;4924471;29;20448;-79
2023/07/17 03:33:27;;;;;;;13.87;13.27;;;21.20;99.90;;;;;;4924398;29;20461;-78
2023/07/17 03:35:55;;;;;;;13.57;12.97;;;21.20;99.90;;;;;;4919414;29;20460;-78
2023/07/17 03:38:24;;;;;;;13.47;12.90;;;21.10;99.90;;;;;;4921605;29;20453;-78
2023/07/17 03:40:52;;;;;;;13.93;13.33;;;21.20;99.90;;;;;;4933949;28;20479;-79
2023/07/17 03:43:21;;;;;;;13.50;13.00;;;21.10;99.90;;;;;;4917811;29;20471;-78
2023/07/17 03:45:51;;;;;;;13.53;13.03;;;21.20;99.90;;;;;;4922068;29;20468;-79
2023/07/17 03:48:19;;;;;;;13.70;13.10;;;21.10;99.90;;;;;;4919168;29;20578;-79
2023/07/17 03:50:48;;;;;;;13.20;12.70;;;21.10;99.90;;;;;;4920426;29;20849;-79
2023/07/17 03:53:16;;;;;;;13.20;12.60;;;21.10;99.90;;;;;;4922423;29;20471;-79
2023/07/17 03:55:44;;;;;;;13.70;13.10;;;21.10;99.90;;;;;;4921732;29;20472;-78
2023/07/17 03:58:12;;;;;;;13.20;12.57;;;21.10;99.90;;;;;;4919652;28;20478;-78
2023/07/17 04:00:42;;;;;;;13.80;13.30;;;21.00;99.90;;;;;;4918469;29;20493;-79
2023/07/17 04:03:10;;;;;;;13.57;13.07;;;21.00;99.90;;;;;;4921271;29;20979;-80
2023/07/17 04:05:38;;;;;;;14.10;13.20;;;21.10;99.90;;;;;;4918767;29;20552;-79
2023/07/17 04:08:06;;;;;;;13.87;13.17;;;21.00;99.90;;;;;;4918128;29;20483;-79
2023/07/17 04:10:34;;;;;;;13.47;12.97;;;21.00;99.90;;;;;;4921270;29;21029;-79
2023/07/17 04:13:02;;;;;;;14.00;13.50;;;20.90;99.90;;;;;;4916761;28;20477;-79
2023/07/17 04:15:30;;;;;;;14.47;13.87;;;20.90;99.90;;;;;;4922514;29;20557;-80
2023/07/17 04:18:00;;;;;;;13.60;13.13;;;20.80;99.90;;;;;;4913346;29;20480;-80
2023/07/17 04:20:28;;;;;;;13.30;12.70;;;20.90;99.90;;;;;;4922613;29;20474;-79
2023/07/17 04:22:56;;;;;;;14.10;13.40;;;20.80;99.90;;;;;;4921093;29;21026;-78
2023/07/17 04:25:24;;;;;;;13.77;13.27;;;20.80;99.90;;;;;;4919590;29;20518;-78
2023/07/17 04:27:52;;;;;;;14.03;13.43;;;20.80;99.90;;;;;;4922974;29;21094;-80
2023/07/17 04:30:20;;;;;;;14.50;13.80;;;20.90;99.90;;;;;;4919247;29;20461;-79
2023/07/17 04:32:51;;;;;;;13.63;13.23;;;20.80;99.90;;;;;;4920593;29;20484;-79
2023/07/17 04:35:21;;;;;;;14.53;13.83;;;20.70;99.90;;;;;;4919249;29;21038;-72
2023/07/17 04:37:50;;;;;;;14.67;14.13;;;20.70;99.90;;;;;;4920572;29;20512;-71
2023/07/17 04:40:18;;;;;;;14.37;13.83;;;20.70;99.90;;;;;;4924985;29;20867;-72
2023/07/17 04:42:46;;;;;;;14.10;13.60;;;20.70;99.90;;;;;;4921044;29;20492;-74
2023/07/17 04:45:16;;;;;;;15.33;14.57;;;20.70;99.90;;;;;;4920707;29;21222;-71
2023/07/17 04:47:44;;;;;;;14.87;14.00;;;20.80;99.90;;;;;;4916164;29;21049;-72
2023/07/17 04:50:12;;;;;;;14.43;13.93;;;20.90;99.90;;;;;;4921899;29;20467;-71
2023/07/17 04:52:42;;;;;;;14.90;14.10;;;20.90;99.90;;;;;;4921151;29;20465;-70
2023/07/17 04:55:10;;;;;;;14.80;14.10;;;20.80;99.90;;;;;;4918557;29;20464;-72
2023/07/17 04:57:38;;;;;;;14.00;13.40;;;20.80;99.90;;;;;;4923432;29;20484;-71
2023/07/17 05:00:09;;;;;;;14.30;13.80;;;20.80;99.90;;;;;;4911263;29;20550;-71
2023/07/17 05:02:37;;;;;;;13.97;13.47;;;20.80;99.90;;;;;;4917068;29;21037;-70
2023/07/17 05:05:06;;;;;;;14.80;14.10;;;20.90;99.90;;;;;;4922052;29;20522;-70
2023/07/17 05:07:34;;;;;;;14.73;14.13;;;20.90;99.90;;;;;;4918724;28;21040;-71
2023/07/17 05:10:04;;;;;;;14.97;14.07;;;20.90;99.90;;;;;;4919253;29;20462;-70
2023/07/17 05:12:32;;;;;;;14.77;14.23;;;20.90;99.90;;;;;;4917199;29;20466;-72
2023/07/17 05:15:00;;;;;;;15.43;14.73;;;20.90;99.90;;;;;;4916624;29;20463;-71
2023/07/17 05:17:29;;;;;;;15.10;14.50;;;20.90;99.90;;;;;;4921449;29;20542;-71
2023/07/17 05:19:58;;;;;;;14.87;14.20;;;20.90;99.90;;;;;;4916308;29;20913;-71
2023/07/17 05:22:26;;;;;;;14.60;14.00;;;21.00;99.90;;;;;;4922739;29;20490;-71
2023/07/17 05:24:55;;;;;;;14.50;13.90;;;21.10;99.90;;;;;;4919863;29;20456;-70
2023/07/17 05:27:24;;;;;;;15.73;15.03;;;21.10;99.90;;;;;;4919514;29;20490;-71
2023/07/17 05:29:52;;;;;;;15.47;14.77;;;21.20;99.90;;;;;;4919319;29;20982;-71
2023/07/17 05:32:20;;;;;;;15.00;14.50;;;21.20;99.90;;;;;;4917774;29;20904;-71
2023/07/17 05:34:49;;;;;;;15.43;14.70;;;21.30;99.90;;;;;;4923342;29;20480;-70
2023/07/17 05:37:18;;;;;;;15.17;14.57;;;21.30;99.90;;;;;;4922443;29;20541;-75
2023/07/17 05:39:46;;;;;;;15.10;14.33;;;21.30;99.90;;;;;;4917803;29;20495;-71
2023/07/17 05:42:15;;;;;;;14.80;14.20;;;21.30;99.90;;;;;;4927682;29;20489;-71
2023/07/17 05:44:44;;;;;;;15.90;14.60;;;21.40;99.90;;;;;;4926036;29;20459;-70
2023/07/17 05:47:12;;;;;;;15.40;14.60;;;21.30;99.90;;;;;;4922215;29;20896;-70
2023/07/17 05:49:41;;;;;;;15.20;14.60;;;21.40;99.90;;;;;;4925300;29;20471;-71
2023/07/17 05:52:09;;;;;;;14.90;14.30;;;21.40;99.90;;;;;;4920750;29;20465;-71
2023/07/17 05:54:38;;;;;;;15.50;14.80;;;21.40;99.90;;;;;;4922716;29;20467;-70
2023/07/17 05:57:07;;;;;;;15.33;14.83;;;21.40;99.90;;;;;;4919516;29;20483;-71
2023/07/17 05:59:35;;;;;;;15.73;14.60;;;21.40;99.90;;;;;;4923411;29;20458;-70
2023/07/17 06:02:06;;;;;;;16.27;15.57;;;21.40;99.90;;;;;;4919377;29;20487;-70
2023/07/17 06:04:34;;;;;;;15.53;14.93;;;21.40;99.90;;;;;;4921939;29;20456;-71
2023/07/17 06:07:04;;;;;;;16.07;15.37;;;21.40;99.90;;;;;;4922461;29;20594;-71
2023/07/17 06:09:34;;;;;;;16.50;15.60;;;21.50;99.90;;;;;;4923212;29;20470;-80
2023/07/17 06:12:03;;;;;;;16.20;15.57;;;21.50;99.90;;;;;;4922368;29;21033;-81
2023/07/17 06:14:31;;;;;;;15.03;14.43;;;21.50;99.90;;;;;;4926873;29;20483;-81
2023/07/17 06:16:59;;;;;;;15.80;15.20;;;21.50;99.90;;;;;;4927406;29;20476;-81
2023/07/17 06:19:29;;;;;;;17.53;16.40;;;21.60;99.90;;;;;;4925761;29;20460;-80
2023/07/17 06:21:57;;;;;;;15.83;15.23;;;21.50;99.90;;;;;;4927861;29;20750;-80
2023/07/17 06:24:25;;;;;;;16.03;15.40;;;21.50;99.90;;;;;;4922478;29;20459;-80
2023/07/17 06:26:53;;;;;;;15.20;14.70;;;21.60;99.90;;;;;;4925941;29;20496;-80
2023/07/17 06:29:24;;;;;;;15.43;14.73;;;21.60;99.90;;;;;;4926473;29;20467;-80
2023/07/17 06:31:52;;;;;;;15.53;14.70;;;21.70;99.90;;;;;;4922960;29;20461;-80
2023/07/17 06:34:20;;;;;;;15.73;14.93;;;21.80;99.90;;;;;;4926677;29;20456;-80
2023/07/17 06:36:51;;;;;;;16.17;15.33;;;21.90;99.90;;;;;;4926377;29;20494;-80
2023/07/17 06:39:20;;;;;;;15.80;15.10;;;21.80;99.90;;;;;;4925014;29;20472;-80
2023/07/17 06:41:48;;;;;;;15.10;14.40;;;21.90;99.90;;;;;;4925879;29;20469;-81
2023/07/17 06:44:16;;;;;;;15.50;14.80;;;22.00;99.90;;;;;;4927946;29;20512;-80
2023/07/17 06:46:44;;;;;;;15.83;15.03;;;22.00;99.90;;;;;;4924003;29;20483;-81
2023/07/17 06:49:13;;;;;;;15.73;15.13;;;22.10;99.90;;;;;;4928452;29;20457;-81
2023/07/17 06:51:41;;;;;;;15.40;14.60;;;22.20;99.90;;;;;;4926497;29;20992;-81
2023/07/17 06:54:10;;;;;;;16.03;15.20;;;22.20;99.90;;;;;;4926123;29;20453;-81
2023/07/17 06:56:38;;;;;;;15.00;14.40;;;22.30;99.90;;;;;;4922475;29;20480;-82
2023/07/17 06:59:06;;;;;;;15.87;15.17;;;22.30;99.90;;;;;;4923993;29;20490;-81
2023/07/17 07:01:34;;;;;;;15.87;14.73;;;22.40;99.90;;;;;;4919230;29;20464;-82
2023/07/17 07:04:03;;;;;;;16.13;15.33;;;22.40;99.90;;;;;;4922958;29;21105;-81
2023/07/17 07:06:31;;;;;;;15.80;15.00;;;22.50;99.90;;;;;;4923872;29;20572;-81
2023/07/17 07:09:00;;;;;;;15.87;15.17;;;22.60;99.90;;;;;;4926857;29;20471;-81
2023/07/17 07:11:29;;;;;;;15.90;15.10;;;22.70;99.90;;;;;;4924199;29;20469;-81
2023/07/17 07:13:57;;;;;;;15.67;14.97;;;22.70;99.90;;;;;;4923906;29;20693;-80
2023/07/17 07:16:25;;;;;;;16.03;14.97;;;22.80;99.90;;;;;;4920453;29;20491;-81
2023/07/17 07:18:53;;;;;;;16.83;15.93;;;22.90;99.90;;;;;;4920307;29;20496;-81
2023/07/17 07:21:22;;;;;;;15.47;14.87;;;22.90;99.90;;;;;;4913854;29;20566;-83
2023/07/17 07:23:50;;;;;;;15.33;14.83;;;22.90;99.90;;;;;;4918027;29;20474;-83
2023/07/17 07:26:18;;;;;;;16.03;15.33;;;23.00;99.90;;;;;;4919593;29;20461;-84
2023/07/17 07:28:48;;;;;;;15.63;15.03;;;23.00;99.90;;;;;;4924016;29;20967;-83
2023/07/17 07:31:16;;;;;;;16.37;15.40;;;23.00;99.90;;;;;;4924424;29;20457;-82
2023/07/17 07:33:44;;;;;;;16.83;16.03;;;23.00;99.90;;;;;;4920468;29;20549;-82
2023/07/17 07:36:12;;;;;;;16.17;15.23;;;23.10;99.90;;;;;;4920358;29;20834;-83
2023/07/17 07:38:40;;;;;;;16.00;15.20;;;23.10;99.90;;;;;;4925551;29;20472;-82
2023/07/17 07:41:08;;;;;;;15.80;14.90;;;23.10;99.90;;;;;;4921919;29;20466;-83
2023/07/17 07:43:37;;;;;;;16.50;15.57;;;23.10;99.90;;;;;;4920673;29;20487;-83
2023/07/17 07:46:06;;;;;;;16.10;15.40;;;23.20;99.90;;;;;;4925343;29;20457;-82
2023/07/17 07:48:34;;;;;;;15.63;14.90;;;23.20;99.90;;;;;;4923823;29;20518;-83
2023/07/17 07:51:03;;;;;;;14.77;14.17;;;23.20;99.90;;;;;;4921964;29;20464;-84
2023/07/17 07:53:31;;;;;;;14.67;13.97;;;23.20;99.90;;;;;;4921591;29;20814;-83
2023/07/17 07:56:10;;;;;;;15.73;14.90;;;23.30;99.90;;;;;;4921726;29;21160;-83
2023/07/17 07:58:38;;;;;;;15.13;14.20;;;23.40;99.90;;;;;;4919352;29;20465;-82
2023/07/17 08:01:08;;;;;;;15.90;15.20;;;23.40;99.90;;;;;;4920468;29;20469;-82
2023/07/17 08:03:37;;;;;;;15.90;14.90;;;23.40;99.90;;;;;;4922122;29;20488;-82
2023/07/17 08:06:05;;;;;;;15.87;15.03;;;23.50;99.90;;;;;;4923597;29;20461;-83
2023/07/17 08:08:33;;;;;;;15.67;14.77;;;23.50;99.90;;;;;;4924603;29;20496;-82
2023/07/17 08:11:02;;;;;;;14.93;14.27;;;23.60;99.90;;;;;;4920207;29;20839;-83
2023/07/17 08:13:30;;;;;;;14.47;13.57;;;23.60;99.90;;;;;;4926529;29;20464;-82
2023/07/17 08:15:58;;;;;;;13.80;13.17;;;23.50;99.90;;;;;;4922553;29;20461;-82
2023/07/17 08:18:28;;;;;;;15.30;14.50;;;23.60;99.90;;;;;;4917036;29;20537;-82
2023/07/17 08:20:56;;;;;;;14.60;13.80;;;23.50;99.90;;;;;;4924330;29;20497;-81
2023/07/17 08:23:28;;;;;;;14.60;13.80;;;23.50;99.90;;;;;;4924574;29;20478;-83
2023/07/17 08:25:56;;;;;;;13.47;12.73;;;23.40;99.90;;;;;;4921027;29;21071;-81
2023/07/17 08:28:24;;;;;;;14.23;13.43;;;23.40;99.90;;;;;;4927284;29;20517;-82
2023/07/17 08:30:53;;;;;;;14.60;13.80;;;23.50;99.90;;;;;;4924037;29;20816;-82
2023/07/17 08:33:22;;;;;;;14.83;14.00;;;23.60;99.90;;;;;;4921794;29;20488;-82
2023/07/17 08:35:51;;;;;;;14.87;14.07;;;23.70;99.90;;;;;;4919883;29;20484;-82
2023/07/17 08:38:20;;;;;;;13.80;13.20;;;23.70;99.90;;;;;;4919493;29;20487;-82
2023/07/17 08:40:51;;;;;;;15.53;14.37;;;23.70;99.90;;;;;;4922785;29;20452;-82
2023/07/17 08:43:20;;;;;;;15.03;14.17;;;23.70;99.90;;;;;;4918419;29;20456;-82
2023/07/17 08:45:49;;;;;;;14.73;13.90;;;23.80;99.90;;;;;;4921739;29;20843;-81
2023/07/17 08:48:18;;;;;;;15.90;15.10;;;23.90;99.90;;;;;;4925226;29;21040;-82
2023/07/17 08:50:46;;;;;;;15.23;13.93;;;24.00;99.90;;;;;;4922253;29;20743;-82
2023/07/17 08:53:17;;;;;;;15.00;14.27;;;24.10;99.90;;;;;;4922360;29;20556;-82
2023/07/17 08:55:46;;;;;;;15.23;14.43;;;24.10;99.90;;;;;;4920523;29;20465;-82
2023/07/17 08:58:14;;;;;;;14.07;13.57;;;24.10;99.90;;;;;;4924461;29;20489;-82
2023/07/17 09:00:44;;;;;;;15.60;14.77;;;24.20;99.90;;;;;;4923713;29;20948;-83
2023/07/17 09:03:12;;;;;;;15.60;14.67;;;24.10;99.90;;;;;;4923991;29;20457;-82
2023/07/17 09:05:41;;;;;;;15.73;14.83;;;24.20;99.90;;;;;;4924011;29;20484;-83
2023/07/17 09:12:37;;;;;;;14.10;13.40;;;24.10;99.90;;;;;;4928194;29;20472;-83
2023/07/17 09:15:07;;;;;;;14.20;13.60;;;24.20;99.90;;;;;;4923338;29;20543;-81
2023/07/17 09:17:35;;;;;;;14.00;13.43;;;24.20;99.90;;;;;;4926061;29;20477;-85
2023/07/17 09:20:11;;;;;;;14.87;14.20;;;24.20;99.90;;;;;;4920930;29;20461;-84
2023/07/17 09:22:39;;;;;;;15.37;14.37;;;24.30;99.90;;;;;;4921932;29;20464;-83
2023/07/17 09:25:09;;;;;;;14.30;13.70;;;24.20;99.90;;;;;;4924695;29;20488;-85
2023/07/17 09:27:46;;;;;;;14.50;13.80;;;24.30;99.90;;;;;;4919780;29;21036;-83
2023/07/17 09:30:16;;;;;;;14.03;13.53;;;24.40;99.90;;;;;;4921231;29;20482;-84
2023/07/17 09:32:45;;;;;;;14.10;13.50;;;24.50;99.90;;;;;;4922393;29;20967;-85
2023/07/17 09:35:14;;;;;;;14.90;14.07;;;24.40;99.90;;;;;;4919941;29;20468;-85
2023/07/17 09:37:44;;;;;;;14.80;14.00;;;24.60;99.90;;;;;;4921150;29;20472;-85
2023/07/17 09:40:17;;;;;;;13.80;13.10;;;24.50;99.90;;;;;;4920781;29;20461;-84
2023/07/17 09:42:53;;;;;;;14.60;13.90;;;24.60;99.90;;;;;;4923756;29;21048;-84
2023/07/17 09:45:22;;;;;;;14.77;13.87;;;24.50;99.90;;;;;;4922314;29;21242;-83
2023/07/17 09:47:51;;;;;;;14.00;13.30;;;24.50;99.90;;;;;;4925040;29;20484;-84
2023/07/17 09:50:22;;;;;;;13.27;12.67;;;24.50;99.90;;;;;;4923419;29;20500;-85
2023/07/17 09:52:51;;;;;;;13.93;13.10;;;24.50;99.90;;;;;;4925742;29;20738;-84
2023/07/17 09:55:25;;;;;;;14.00;13.43;;;24.50;99.90;;;;;;4926221;29;20468;-84
2023/07/17 09:57:59;;;;;;;13.93;13.27;;;24.50;99.90;;;;;;4925870;29;20499;-83
2023/07/17 10:00:28;;;;;;;13.67;12.73;;;24.70;99.90;;;;;;4924507;29;21123;-84
2023/07/17 10:03:05;;;;;;;12.37;11.83;;;24.90;99.90;;;;;;4923967;29;20829;-82
2023/07/17 10:05:34;;;;;;;12.60;11.87;;;24.70;99.90;;;;;;4927728;29;20492;-83
2023/07/17 10:08:06;;;;;;;13.17;12.53;;;24.80;99.90;;;;;;4924471;29;20569;-84
2023/07/17 10:10:35;;;;;;;12.90;12.10;;;24.80;99.90;;;;;;4924274;29;20834;-85
2023/07/17 10:13:06;;;;;;;13.43;12.83;;;24.70;99.90;;;;;;4921110;29;20489;-84
2023/07/17 10:15:36;;;;;;;13.90;13.20;;;24.80;99.90;;;;;;4926173;29;20538;-86
2023/07/17 10:18:08;;;;;;;12.90;12.30;;;24.80;99.90;;;;;;4927979;29;20524;-85
2023/07/17 10:20:38;;;;;;;13.43;12.70;;;24.80;99.90;;;;;;4925313;29;20450;-83
2023/07/17 10:23:23;;;;;;;13.90;13.20;;;24.70;99.90;;;;;;4925480;29;20824;-84
2023/07/17 10:25:52;;;;;;;13.63;12.83;;;24.70;99.90;;;;;;4926897;29;20500;-84
2023/07/17 10:28:32;;;;;;;13.63;12.93;;;24.70;99.90;;;;;;4931259;29;20469;-84
2023/07/17 10:31:08;;;;;;;13.77;12.97;;;24.80;99.90;;;;;;4925340;29;21004;-84
2023/07/17 10:33:38;;;;;;;14.30;13.63;;;24.70;99.90;;;;;;4927385;29;20960;-84
2023/07/17 10:36:06;;;;;;;13.60;12.90;;;24.70;99.90;;;;;;4929106;29;20450;-84
2023/07/17 10:38:37;;;;;;;13.73;12.93;;;24.70;99.90;;;;;;4940615;28;20454;-85
2023/07/17 10:41:06;;;;;;;13.90;13.13;;;24.60;99.90;;;;;;4925822;29;20457;-83
2023/07/17 10:43:36;;;;;;;14.03;13.43;;;24.60;99.90;;;;;;4927557;29;21001;-83
2023/07/17 10:46:09;;;;;;;14.37;13.47;;;24.70;99.90;;;;;;4938055;28;21170;-83
2023/07/17 10:48:37;;;;;;;13.50;12.90;;;24.80;99.90;;;;;;4923694;29;20469;-84
2023/07/17 10:51:05;;;;;;;14.87;14.17;;;25.00;99.90;;;;;;4926966;29;20450;-84
2023/07/17 10:53:33;;;;;;;14.33;13.47;;;25.00;99.90;;;;;;4921616;29;20453;-87
2023/07/17 10:56:02;;;;;;;14.10;13.40;;;25.00;99.90;;;;;;4923671;29;20444;-83
2023/07/17 10:58:30;;;;;;;14.53;13.90;;;25.10;99.90;;;;;;4924160;29;20859;-85
2023/07/17 11:01:04;;;;;;;14.53;13.80;;;25.10;99.90;;;;;;4921775;29;20467;-85
2023/07/17 11:03:33;;;;;;;13.50;12.83;;;25.30;99.90;;;;;;4923828;29;20460;-84
2023/07/17 11:06:01;;;;;;;14.90;14.10;;;25.40;99.90;;;;;;4923554;29;20572;-83
2023/07/17 11:08:29;;;;;;;14.37;13.57;;;25.50;99.90;;;;;;4925818;29;20485;-84
2023/07/17 11:10:57;;;;;;;14.30;13.67;;;25.50;99.90;;;;;;4923075;29;20833;-82
2023/07/17 11:13:31;;;;;;;14.30;13.60;;;25.50;99.90;;;;;;4921053;29;20464;-83
2023/07/17 11:16:08;;;;;;;13.43;12.83;;;25.50;99.90;;;;;;4927436;29;20483;-84
2023/07/17 11:18:44;;;;;;;14.80;14.13;;;25.60;99.90;;;;;;4925893;28;20472;-84
2023/07/17 11:21:16;;;;;;;14.50;13.83;;;25.50;99.90;;;;;;4926162;29;20464;-84
2023/07/17 11:23:50;;;;;;;14.73;13.93;;;25.50;99.90;;;;;;4924438;29;20469;-84
2023/07/17 11:26:20;;;;;;;14.90;14.20;;;25.60;99.90;;;;;;4923607;29;20484;-84
2023/07/17 11:28:50;;;;;;;14.57;13.77;;;25.70;99.90;;;;;;4925572;29;20467;-84
2023/07/17 11:31:21;;;;;;;15.53;14.50;;;25.70;99.90;;;;;;4923574;29;20461;-83
2023/07/17 11:34:00;;;;;;;14.97;14.23;;;25.70;99.90;;;;;;4923165;29;21033;-85
2023/07/17 11:36:31;;;;;;;14.80;14.10;;;25.90;99.90;;;;;;4925175;29;20483;-85
2023/07/17 11:39:10;;;;;;;14.57;13.87;;;26.00;99.90;;;;;;4925721;29;20456;-85
2023/07/17 11:41:46;;;;;;;14.10;13.40;;;26.00;99.90;;;;;;4925037;29;20496;-85
2023/07/17 11:44:16;;;;;;;14.80;14.13;;;26.00;99.90;;;;;;4923495;29;20448;-83
2023/07/17 11:46:46;;;;;;;16.00;15.20;;;26.00;99.90;;;;;;4923484;29;20998;-84
2023/07/17 11:49:15;;;;;;;16.13;15.23;;;26.00;99.90;;;;;;4922717;29;20469;-84
2023/07/17 11:51:43;;;;;;;16.13;15.20;;;26.00;99.90;;;;;;4922621;29;20465;-84
2023/07/17 11:54:14;;;;;;;14.50;13.80;;;26.10;99.90;;;;;;4924607;29;20504;-85
2023/07/17 11:56:44;;;;;;;14.20;13.60;;;26.20;99.90;;;;;;4920598;29;20479;-84
2023/07/17 11:59:20;;;;;;;14.23;13.53;;;26.10;99.90;;;;;;4921600;29;20699;-85
2023/07/17 12:01:50;;;;;;;15.50;14.77;;;26.10;99.90;;;;;;4921741;29;20612;-84
2023/07/17 12:04:21;;;;;;;15.83;15.13;;;26.10;99.90;;;;;;4925401;29;20930;-84
2023/07/17 12:06:50;;;;;;;14.93;14.33;;;26.10;99.90;;;;;;4923191;29;20496;-81
2023/07/17 12:09:18;;;;;;;15.07;14.17;;;26.10;99.90;;;;;;4922819;29;20457;-85
2023/07/17 12:11:47;;;;;;;14.63;13.70;;;26.10;99.90;;;;;;4919727;29;20461;-86
2023/07/17 12:14:16;;;;;;;15.07;13.70;;;26.20;99.90;;;;;;4915322;28;20509;-84
2023/07/17 12:16:45;;;;;;;15.30;14.70;;;26.20;99.90;;;;;;4922032;29;20692;-85
2023/07/17 12:19:15;;;;;;;15.90;14.90;;;26.20;99.90;;;;;;4920237;29;20471;-83
2023/07/17 12:21:43;;;;;;;15.67;15.00;;;26.20;99.90;;;;;;4923897;29;20457;-85
2023/07/17 12:24:13;;;;;;;14.27;13.77;;;26.30;99.90;;;;;;4923340;29;20453;-85
2023/07/17 12:26:43;;;;;;;14.67;13.80;;;26.30;99.90;;;;;;4921461;29;20508;-84
2023/07/17 12:29:11;;;;;;;13.70;13.20;;;26.20;99.90;;;;;;4921483;29;20470;-85
2023/07/17 12:31:40;;;;;;;14.63;13.60;;;26.20;99.90;;;;;;4923092;29;21128;-85
2023/07/17 12:34:09;;;;;;;14.93;14.17;;;26.30;99.90;;;;;;4923321;29;20970;-84
2023/07/17 12:36:39;;;;;;;13.40;12.90;;;26.40;99.90;;;;;;4921979;29;20465;-84
2023/07/17 12:39:13;;;;;;;14.60;13.73;;;26.30;99.90;;;;;;4919851;29;20467;-83
2023/07/17 12:41:42;;;;;;;14.20;13.40;;;26.30;99.90;;;;;;4911823;28;20328;-85